createdAt,value
2018-09-11T00:01:28.893Z,69.60
2018-09-11T00:03:57.015Z,69.80
2018-09-11T00:06:25.105Z,69.90
2018-09-11T00:08:53.220Z,70.40
2018-09-11T00:11:21.096Z,70.40
2018-09-11T00:13:49.227Z,70.50
2018-09-11T00:16:17.244Z,70.50
2018-09-11T00:18:45.280Z,70.20
2018-09-11T00:21:13.283Z,71.00
2018-09-11T00:23:41.316Z,71.50
2018-09-11T00:26:09.297Z,71.70
2018-09-11T00:28:37.177Z,71.80
2018-09-11T00:31:05.012Z,71.50
2018-09-11T00:33:33.085Z,70.60
2018-09-11T00:36:01.010Z,71.20
2018-09-11T00:38:28.916Z,71.10
2018-09-11T00:40:56.964Z,71.10
2018-09-11T00:43:24.957Z,71.30
2018-09-11T00:45:53.113Z,71.40
2018-09-11T00:48:21.088Z,71.50
2018-09-11T00:50:49.145Z,71.50
2018-09-11T00:53:17.701Z,71.50
2018-09-11T00:55:45.696Z,71.60
2018-09-11T00:58:13.589Z,71.50
2018-09-11T01:00:41.398Z,71.10
2018-09-11T01:03:09.354Z,71.80
2018-09-11T01:05:37.320Z,72.60
2018-09-11T01:08:05.354Z,73.00
2018-09-11T01:10:33.391Z,73.50
2018-09-11T01:13:01.409Z,74.10
2018-09-11T01:15:29.457Z,74.50
2018-09-11T01:17:57.586Z,74.90
2018-09-11T01:20:25.511Z,75.40
2018-09-11T01:22:53.368Z,76.30
2018-09-11T01:25:21.406Z,76.30
2018-09-11T01:27:49.372Z,76.70
2018-09-11T01:30:19.263Z,77.10
2018-09-11T01:32:47.624Z,77.30
2018-09-11T01:35:15.636Z,77.10
2018-09-11T01:37:43.564Z,76.40
2018-09-11T01:40:11.497Z,76.10
2018-09-11T01:42:39.762Z,75.30
2018-09-11T01:45:08.057Z,74.90
2018-09-11T01:47:36.097Z,75.20
2018-09-11T01:50:04.250Z,75.50
2018-09-11T01:52:32.235Z,75.90
2018-09-11T01:55:00.362Z,75.90
2018-09-11T01:57:28.349Z,75.80
2018-09-11T01:59:56.451Z,75.90
2018-09-11T02:02:24.410Z,75.50
2018-09-11T02:04:52.714Z,75.70
2018-09-11T02:07:20.716Z,75.70
2018-09-11T02:09:48.700Z,75.60
2018-09-11T02:12:16.848Z,74.20
2018-09-11T02:14:45.106Z,74.10
2018-09-11T02:17:13.075Z,74.20
2018-09-11T02:19:41.069Z,74.80
2018-09-11T02:22:09.056Z,74.90
2018-09-11T02:24:36.993Z,74.50
2018-09-11T02:27:05.296Z,74.20
2018-09-11T02:29:33.371Z,73.60
2018-09-11T02:32:01.389Z,73.60
2018-09-11T02:34:29.413Z,74.00
2018-09-11T02:36:57.356Z,74.70
2018-09-11T02:39:25.391Z,75.10
2018-09-11T02:41:53.474Z,75.80
2018-09-11T02:44:21.331Z,76.40
2018-09-11T02:46:49.337Z,76.90
2018-09-11T02:49:17.365Z,77.60
2018-09-11T02:51:45.380Z,77.40
2018-09-11T02:54:13.410Z,77.70
2018-09-11T02:56:41.487Z,78.00
2018-09-11T02:59:09.416Z,77.90
2018-09-11T03:01:37.432Z,77.60
2018-09-11T03:04:05.404Z,77.40
2018-09-11T03:06:33.503Z,76.40
2018-09-11T03:09:01.503Z,75.50
2018-09-11T03:11:29.544Z,74.90
2018-09-11T03:13:56.761Z,75.40
2018-09-11T03:16:24.059Z,76.70
2018-09-11T03:18:52.187Z,75.70
2018-09-11T03:21:20.550Z,75.30
2018-09-11T03:23:48.692Z,75.20
2018-09-11T03:26:16.861Z,75.20
2018-09-11T03:28:44.789Z,75.30
2018-09-11T03:31:12.709Z,75.00
2018-09-11T03:33:40.652Z,75.20
2018-09-11T03:36:08.664Z,75.90
2018-09-11T03:38:36.639Z,76.70
2018-09-11T03:41:04.538Z,75.80
2018-09-11T03:43:32.516Z,75.10
2018-09-11T03:46:00.536Z,75.20
2018-09-11T03:48:28.627Z,75.20
2018-09-11T03:50:56.481Z,74.20
2018-09-11T03:53:24.448Z,74.60
2018-09-11T03:55:52.458Z,75.10
2018-09-11T03:58:20.478Z,75.10
2018-09-11T04:00:48.499Z,75.20
2018-09-11T04:03:16.608Z,75.10
2018-09-11T04:05:44.626Z,75.20
2018-09-11T04:08:12.635Z,75.20
2018-09-11T04:10:40.637Z,75.90
2018-09-11T04:13:08.579Z,75.20
2018-09-11T04:15:36.657Z,75.20
2018-09-11T04:18:04.718Z,76.10
2018-09-11T04:20:32.850Z,75.80
2018-09-11T04:23:00.871Z,75.80
2018-09-11T04:25:28.900Z,75.20
2018-09-11T04:27:56.990Z,75.80
2018-09-11T04:30:24.894Z,76.20
2018-09-11T04:32:52.991Z,75.70
2018-09-11T04:35:21.168Z,75.00
2018-09-11T04:37:49.144Z,74.50
2018-09-11T04:40:17.205Z,75.00
2018-09-11T04:42:45.312Z,75.70
2018-09-11T04:45:14.493Z,75.60
2018-09-11T04:47:42.379Z,76.10
2018-09-11T04:50:10.336Z,76.10
2018-09-11T04:52:38.372Z,76.60
2018-09-11T04:55:06.534Z,76.60
2018-09-11T04:57:34.503Z,76.20
2018-09-11T05:00:02.387Z,76.50
2018-09-11T05:02:30.367Z,76.00
2018-09-11T05:04:59.421Z,74.80
2018-09-11T05:07:27.529Z,74.40
2018-09-11T05:09:55.427Z,74.10
2018-09-11T05:12:23.289Z,74.20
2018-09-11T05:14:51.241Z,74.10
2018-09-11T05:17:19.175Z,74.00
2018-09-11T05:19:47.179Z,74.50
2018-09-11T05:22:15.238Z,74.50
2018-09-11T05:24:43.208Z,75.20
2018-09-11T05:27:11.228Z,75.10
2018-09-11T05:29:39.496Z,75.20
2018-09-11T05:32:07.615Z,74.30
2018-09-11T05:34:35.566Z,74.30
2018-09-11T05:37:03.620Z,74.70
2018-09-11T05:39:31.656Z,74.60
2018-09-11T05:41:59.663Z,73.70
2018-09-11T05:44:27.639Z,73.90
2018-09-11T05:46:55.641Z,74.10
2018-09-11T05:49:23.935Z,74.50
2018-09-11T05:51:53.402Z,74.20
2018-09-11T05:54:21.363Z,73.90
2018-09-11T05:56:49.375Z,73.40
2018-09-11T05:59:17.315Z,72.90
2018-09-11T06:01:45.380Z,72.50
2018-09-11T06:04:13.280Z,71.60
2018-09-11T06:06:41.249Z,71.10
2018-09-11T06:09:11.377Z,68.10
2018-09-11T06:11:39.457Z,65.90
2018-09-11T06:14:07.917Z,62.90
2018-09-11T06:16:35.949Z,60.30
2018-09-11T06:19:04.197Z,58.90
2018-09-11T06:21:32.432Z,57.30
2018-09-11T06:24:00.528Z,56.60
2018-09-11T06:26:30.174Z,56.90
2018-09-11T06:28:58.911Z,57.30
2018-09-11T06:31:27.022Z,58.00
2018-09-11T06:33:54.899Z,58.40
2018-09-11T06:36:22.940Z,58.80
2018-09-11T06:38:51.198Z,59.10
2018-09-11T06:41:19.872Z,59.00
2018-09-11T06:43:47.863Z,60.00
2018-09-11T06:46:15.953Z,61.30
2018-09-11T06:48:43.895Z,62.30
2018-09-11T06:51:12.159Z,63.30
2018-09-11T06:53:40.295Z,64.00
2018-09-11T06:56:09.333Z,64.60
2018-09-11T06:58:37.410Z,64.60
2018-09-11T07:01:05.573Z,64.30
2018-09-11T07:03:33.567Z,63.70
2018-09-11T07:06:01.561Z,62.40
2018-09-11T07:08:29.676Z,61.40
2018-09-11T07:10:57.716Z,59.40
2018-09-11T07:13:25.762Z,58.70
2018-09-11T07:15:53.733Z,57.80
2018-09-11T07:18:21.840Z,56.70
2018-09-11T07:20:49.768Z,56.40
2018-09-11T07:23:17.713Z,55.60
2018-09-11T07:25:45.877Z,55.20
2018-09-11T07:28:13.834Z,54.50
2018-09-11T07:30:41.856Z,53.70
2018-09-11T07:33:09.835Z,52.80
2018-09-11T07:35:38.069Z,52.50
2018-09-11T07:38:06.227Z,52.00
2018-09-11T07:40:34.593Z,51.90
2018-09-11T07:43:02.846Z,50.40
2018-09-11T07:45:31.177Z,50.40
2018-09-11T07:47:59.334Z,50.70
2018-09-11T07:50:27.763Z,50.30
2018-09-11T07:52:55.882Z,50.10
2018-09-11T07:55:23.809Z,50.20
2018-09-11T07:57:52.059Z,50.30
2018-09-11T08:00:20.355Z,49.60
2018-09-11T08:02:48.575Z,49.60
2018-09-11T08:05:16.967Z,48.90
2018-09-11T08:07:45.127Z,48.10
2018-09-11T08:10:13.325Z,47.80
2018-09-11T08:12:41.540Z,47.00
2018-09-11T08:15:10.590Z,47.30
2018-09-11T08:17:38.844Z,47.70
2018-09-11T08:20:07.251Z,47.50
2018-09-11T08:22:35.545Z,47.50
2018-09-11T08:25:04.055Z,47.60
2018-09-11T08:27:32.026Z,47.20
2018-09-11T08:30:00.035Z,47.20
2018-09-11T08:32:28.079Z,47.60
2018-09-11T08:34:56.235Z,47.90
2018-09-11T08:37:24.254Z,47.70
2018-09-11T08:39:52.149Z,47.80
2018-09-11T08:42:20.134Z,48.00
2018-09-11T08:44:48.120Z,47.80
2018-09-11T08:47:16.020Z,47.80
2018-09-11T08:49:43.989Z,47.50
2018-09-11T08:52:12.082Z,47.10
2018-09-11T08:54:40.113Z,46.10
2018-09-11T08:57:08.069Z,46.00
2018-09-11T08:59:36.119Z,46.90
2018-09-11T09:02:04.203Z,46.40
2018-09-11T09:04:32.157Z,45.40
2018-09-11T09:07:00.296Z,45.80
2018-09-11T09:09:28.318Z,46.60
2018-09-11T09:11:56.416Z,46.40
2018-09-11T09:14:24.359Z,46.50
2018-09-11T09:16:52.435Z,46.20
2018-09-11T09:19:20.410Z,46.50
2018-09-11T09:21:48.438Z,47.10
2018-09-11T09:24:16.453Z,47.00
2018-09-11T09:26:44.628Z,46.30
2018-09-11T09:29:12.725Z,46.10
2018-09-11T09:31:40.696Z,46.10
2018-09-11T09:34:08.760Z,46.60
2018-09-11T09:36:36.934Z,46.00
2018-09-11T09:39:06.572Z,46.30
2018-09-11T09:41:34.797Z,46.00
2018-09-11T09:44:02.824Z,45.30
2018-09-11T09:46:30.831Z,45.60
2018-09-11T09:48:58.988Z,43.60
2018-09-11T09:51:27.092Z,43.40
2018-09-11T09:53:55.137Z,43.00
2018-09-11T09:56:23.199Z,43.80
2018-09-11T09:58:51.364Z,42.40
2018-09-11T10:02:22.816Z,43.70
2018-09-11T10:04:51.361Z,44.10
2018-09-11T10:07:20.493Z,43.20
2018-09-11T10:09:48.841Z,42.80
2018-09-11T10:12:17.152Z,42.10
2018-09-11T10:14:45.098Z,42.30
2018-09-11T10:17:13.124Z,42.10
2018-09-11T10:19:41.075Z,42.00
2018-09-11T10:22:09.346Z,41.70
2018-09-11T10:24:37.304Z,42.10
2018-09-11T10:27:05.318Z,42.20
2018-09-11T10:29:33.490Z,41.50
2018-09-11T10:32:01.400Z,42.00
2018-09-11T10:34:29.583Z,41.70
2018-09-11T10:36:58.054Z,41.60
2018-09-11T10:39:25.950Z,41.60
2018-09-11T10:41:54.242Z,41.20
2018-09-11T10:44:22.308Z,41.90
2018-09-11T10:46:50.360Z,41.90
2018-09-11T10:49:18.388Z,41.70
2018-09-11T10:51:46.339Z,42.00
2018-09-11T10:54:14.391Z,41.80
2018-09-11T10:56:42.445Z,42.10
2018-09-11T10:59:11.536Z,42.00
2018-09-11T11:01:39.523Z,41.70
2018-09-11T11:04:07.710Z,41.80
2018-09-11T11:06:36.331Z,41.90
2018-09-11T11:09:07.316Z,41.60
2018-09-11T11:11:35.265Z,41.90
2018-09-11T11:14:03.634Z,41.20
2018-09-11T11:16:31.832Z,41.10
2018-09-11T11:18:59.973Z,41.30
2018-09-11T11:21:27.995Z,41.90
2018-09-11T11:23:55.976Z,42.00
2018-09-11T11:26:23.999Z,41.40
2018-09-11T11:28:51.994Z,42.00
2018-09-11T11:31:20.042Z,41.10
2018-09-11T11:33:48.132Z,40.90
2018-09-11T11:36:16.202Z,40.30
2018-09-11T11:38:44.313Z,39.90
2018-09-11T11:41:12.664Z,40.30
2018-09-11T11:43:41.722Z,39.50
2018-09-11T11:46:10.750Z,40.10
2018-09-11T11:48:38.925Z,40.40
2018-09-11T11:51:07.037Z,40.30
2018-09-11T11:53:35.077Z,40.50
2018-09-11T11:56:03.161Z,38.80
2018-09-11T11:58:31.311Z,38.10
2018-09-11T12:00:59.686Z,38.00
2018-09-11T12:03:27.818Z,37.30
2018-09-11T12:05:55.903Z,36.60
2018-09-11T12:08:23.854Z,35.40
2018-09-11T12:10:51.894Z,36.10
2018-09-11T12:13:20.136Z,35.10
2018-09-11T12:15:48.235Z,35.30
2018-09-11T12:18:16.430Z,36.10
2018-09-11T12:20:44.389Z,36.00
2018-09-11T12:23:12.293Z,34.80
2018-09-11T12:25:40.341Z,35.10
2018-09-11T12:28:08.301Z,36.20
2018-09-11T12:30:36.178Z,36.80
2018-09-11T12:33:04.203Z,36.90
2018-09-11T12:35:32.211Z,35.40
2018-09-11T12:38:00.446Z,35.00
2018-09-11T12:40:28.348Z,35.50
2018-09-11T12:42:56.199Z,36.20
2018-09-11T12:45:24.103Z,34.80
2018-09-11T12:47:52.631Z,34.50
2018-09-11T12:50:20.186Z,34.60
2018-09-11T12:52:48.710Z,35.00
2018-09-11T12:55:16.743Z,34.70
2018-09-11T12:57:44.810Z,35.00
2018-09-11T13:00:12.942Z,34.70
2018-09-11T13:02:41.078Z,34.20
2018-09-11T13:05:09.240Z,34.80
2018-09-11T13:07:37.343Z,35.00
2018-09-11T13:10:05.475Z,35.10
2018-09-11T13:12:33.803Z,35.60
2018-09-11T13:15:01.896Z,35.80
2018-09-11T13:17:29.975Z,36.00
2018-09-11T13:19:58.120Z,36.40
2018-09-11T13:22:26.235Z,36.50
2018-09-11T13:24:54.776Z,35.10
2018-09-11T13:27:22.860Z,35.10
2018-09-11T13:29:51.185Z,35.10
2018-09-11T13:32:19.837Z,34.40
2018-09-11T13:34:47.906Z,34.30
2018-09-11T13:37:16.588Z,34.60
2018-09-11T13:39:45.092Z,35.40
2018-09-11T13:42:13.229Z,35.40
2018-09-11T13:44:41.312Z,34.60
2018-09-11T13:47:09.487Z,34.30
2018-09-11T13:49:37.518Z,34.00
2018-09-11T13:52:05.593Z,34.40
2018-09-11T13:54:33.691Z,34.80
2018-09-11T13:57:02.747Z,35.10
2018-09-11T13:59:30.795Z,34.50
2018-09-11T14:01:58.915Z,34.20
2018-09-11T14:04:26.904Z,33.10
2018-09-11T14:06:54.915Z,33.10
2018-09-11T14:09:23.009Z,33.30
2018-09-11T14:11:53.693Z,33.90
2018-09-11T14:14:21.743Z,34.30
2018-09-11T14:16:49.827Z,34.70
2018-09-11T14:19:18.194Z,35.00
2018-09-11T14:21:46.623Z,33.20
2018-09-11T14:24:14.736Z,33.30
2018-09-11T14:26:42.848Z,32.60
2018-09-11T14:29:10.820Z,32.70
2018-09-11T14:31:38.790Z,32.60
2018-09-11T14:34:06.935Z,33.10
2018-09-11T14:36:35.107Z,32.80
2018-09-11T14:39:04.681Z,33.80
2018-09-11T14:41:32.699Z,34.10
2018-09-11T14:44:00.778Z,34.20
2018-09-11T14:46:28.933Z,34.30
2018-09-11T14:48:56.880Z,34.80
2018-09-11T14:51:24.883Z,35.10
2018-09-11T14:53:53.036Z,34.50
2018-09-11T14:56:21.238Z,34.80
2018-09-11T14:58:49.377Z,34.20
2018-09-11T15:01:17.517Z,33.90
2018-09-11T15:03:45.503Z,33.80
2018-09-11T15:06:13.854Z,33.60
2018-09-11T15:08:41.934Z,33.60
2018-09-11T15:11:09.896Z,33.60
2018-09-11T15:13:38.270Z,33.80
2018-09-11T15:16:06.235Z,33.90
2018-09-11T15:18:34.255Z,34.00
2018-09-11T15:21:02.357Z,34.60
2018-09-11T15:23:30.423Z,35.00
2018-09-11T15:25:58.466Z,35.20
2018-09-11T15:28:26.523Z,35.30
2018-09-11T15:30:54.654Z,34.80
2018-09-11T15:33:22.833Z,35.80
2018-09-11T15:35:50.944Z,35.40
2018-09-11T15:38:18.904Z,34.80
2018-09-11T15:40:46.945Z,34.90
2018-09-11T15:43:14.957Z,34.20
2018-09-11T15:45:42.986Z,33.30
2018-09-11T15:48:11.142Z,33.30
2018-09-11T15:50:39.344Z,33.00
2018-09-11T15:53:07.614Z,33.10
2018-09-11T15:55:35.872Z,33.20
2018-09-11T15:58:04.346Z,33.50
2018-09-11T16:00:32.380Z,33.00
2018-09-11T16:03:00.712Z,33.00
2018-09-11T16:05:29.064Z,33.50
2018-09-11T16:07:57.150Z,33.90
2018-09-11T16:10:25.191Z,33.90
2018-09-11T16:12:53.105Z,33.70
2018-09-11T16:15:21.077Z,33.90
2018-09-11T16:17:49.154Z,34.30
2018-09-11T16:20:17.196Z,34.60
2018-09-11T16:22:45.167Z,34.60
2018-09-11T16:25:13.319Z,34.50
2018-09-11T16:27:41.297Z,35.10
2018-09-11T16:30:09.349Z,35.70
2018-09-11T16:32:37.370Z,36.20
2018-09-11T16:35:05.427Z,36.10
2018-09-11T16:37:33.716Z,36.00
2018-09-11T16:40:01.832Z,36.30
2018-09-11T16:42:29.853Z,36.80
2018-09-11T16:44:57.890Z,36.60
2018-09-11T16:47:25.859Z,36.60
2018-09-11T16:49:53.940Z,37.00
2018-09-11T16:52:22.174Z,36.90
2018-09-11T16:54:50.251Z,37.10
2018-09-11T16:57:18.347Z,37.40
2018-09-11T16:59:46.814Z,37.40
2018-09-11T17:02:14.959Z,37.50
2018-09-11T17:04:42.955Z,37.80
2018-09-11T17:07:10.947Z,37.80
2018-09-11T17:09:38.952Z,38.00
2018-09-11T17:12:06.949Z,38.10
2018-09-11T17:14:35.936Z,38.60
2018-09-11T17:17:04.117Z,38.50
2018-09-11T17:19:32.084Z,38.60
2018-09-11T17:22:00.223Z,38.90
2018-09-11T17:24:28.207Z,39.10
2018-09-11T17:26:56.354Z,39.50
2018-09-11T17:29:24.543Z,39.70
2018-09-11T17:31:52.564Z,40.60
2018-09-11T17:34:20.666Z,41.00
2018-09-11T17:36:48.802Z,41.30
2018-09-11T17:39:16.808Z,41.60
2018-09-11T17:41:44.874Z,42.00
2018-09-11T17:44:12.898Z,42.10
2018-09-11T17:46:40.882Z,42.40
2018-09-11T17:49:08.968Z,42.20
2018-09-11T17:51:37.296Z,42.70
2018-09-11T17:54:05.399Z,42.80
2018-09-11T17:56:33.570Z,43.40
2018-09-11T17:59:01.577Z,43.50
2018-09-11T18:01:29.743Z,43.80
2018-09-11T18:03:58.096Z,44.10
2018-09-11T18:06:26.179Z,44.20
2018-09-11T18:08:54.279Z,44.60
2018-09-11T18:11:22.392Z,44.80
2018-09-11T18:13:50.573Z,45.10
2018-09-11T18:16:18.825Z,45.00
2018-09-11T18:18:46.832Z,45.20
2018-09-11T18:21:15.049Z,45.70
2018-09-11T18:23:43.320Z,45.60
2018-09-11T18:26:12.191Z,45.60
2018-09-11T18:28:41.388Z,45.50
2018-09-11T18:31:09.472Z,46.20
2018-09-11T18:33:37.538Z,46.10
2018-09-11T18:36:05.586Z,46.40
2018-09-11T18:38:33.628Z,46.60
2018-09-11T18:41:01.766Z,46.80
2018-09-11T18:43:29.874Z,47.10
2018-09-11T18:45:58.109Z,47.30
2018-09-11T18:48:26.274Z,48.00
2018-09-11T18:50:54.724Z,48.30
2018-09-11T18:53:22.829Z,48.50
2018-09-11T18:55:51.334Z,48.80
2018-09-11T18:58:19.426Z,48.30
2018-09-11T19:00:47.462Z,48.10
2018-09-11T19:03:15.562Z,47.50
2018-09-11T19:05:43.603Z,48.10
2018-09-11T19:08:11.753Z,48.10
2018-09-11T19:10:39.825Z,47.60
2018-09-11T19:13:08.008Z,47.70
2018-09-11T19:15:36.159Z,47.60
2018-09-11T19:18:04.367Z,47.20
2018-09-11T19:20:32.390Z,47.30
2018-09-11T19:23:00.398Z,47.40
2018-09-11T19:25:28.508Z,47.30
2018-09-11T19:27:56.728Z,47.50
2018-09-11T19:30:25.071Z,47.20
2018-09-11T19:32:53.171Z,47.10
2018-09-11T19:35:21.238Z,47.70
2018-09-11T19:37:49.430Z,47.90
2018-09-11T19:40:19.808Z,48.10
2018-09-11T19:42:48.404Z,47.90
2018-09-11T19:45:16.572Z,48.20
2018-09-11T19:47:44.601Z,48.00
2018-09-11T19:50:13.070Z,48.50
2018-09-11T19:52:41.188Z,48.20
2018-09-11T19:55:09.276Z,48.80
2018-09-11T19:57:37.437Z,48.50
2018-09-11T20:00:06.701Z,48.60
2018-09-11T20:02:35.561Z,48.90
2018-09-11T20:05:03.641Z,48.30
2018-09-11T20:07:31.625Z,48.40
2018-09-11T20:09:59.669Z,48.60
2018-09-11T20:12:27.848Z,48.90
2018-09-11T20:14:56.932Z,49.40
2018-09-11T20:17:25.042Z,49.40
2018-09-11T20:19:53.163Z,49.60
2018-09-11T20:22:21.322Z,50.00
2018-09-11T20:24:49.383Z,49.80
2018-09-11T20:27:17.875Z,50.10
2018-09-11T20:29:45.978Z,49.90
2018-09-11T20:32:13.427Z,49.60
2018-09-11T20:34:40.764Z,49.60
2018-09-11T20:37:08.510Z,50.10
2018-09-11T20:39:35.890Z,50.20
2018-09-11T20:42:03.300Z,49.80
2018-09-11T20:44:30.740Z,49.80
2018-09-11T20:46:58.071Z,50.10
2018-09-11T20:49:25.712Z,50.20
2018-09-11T20:51:53.459Z,50.20
2018-09-11T20:54:20.868Z,50.70
2018-09-11T20:56:48.275Z,51.40
2018-09-11T20:59:15.753Z,50.50
2018-09-11T21:01:43.118Z,50.80
2018-09-11T21:04:10.511Z,50.70
2018-09-11T21:06:38.276Z,50.90
2018-09-11T21:09:07.868Z,51.10
2018-09-11T21:11:36.480Z,51.20
2018-09-11T21:14:04.486Z,51.30
2018-09-11T21:16:32.855Z,52.10
2018-09-11T21:19:01.001Z,53.60
2018-09-11T21:21:29.144Z,52.90
2018-09-11T21:23:57.178Z,53.20
2018-09-11T21:26:25.285Z,54.10
2018-09-11T21:28:53.325Z,54.60
2018-09-11T21:31:21.503Z,53.40
2018-09-11T21:33:49.774Z,53.70
2018-09-11T21:36:17.985Z,53.60
2018-09-11T21:38:46.609Z,53.40
2018-09-11T21:41:14.586Z,53.60
2018-09-11T21:43:43.208Z,53.00
2018-09-11T21:46:11.298Z,52.80
2018-09-11T21:48:39.554Z,52.80
2018-09-11T21:51:07.830Z,53.20
2018-09-11T21:53:35.929Z,53.50
2018-09-11T21:56:04.086Z,54.80
2018-09-11T21:58:32.652Z,55.60
2018-09-11T22:01:02.744Z,55.60
2018-09-11T22:03:30.858Z,56.70
2018-09-11T22:05:59.218Z,57.70
2018-09-11T22:08:27.259Z,58.30
2018-09-11T22:10:55.324Z,58.80
2018-09-11T22:13:23.395Z,58.40
2018-09-11T22:15:55.784Z,58.80
2018-09-11T22:18:24.069Z,59.30
2018-09-11T22:20:52.142Z,59.70
2018-09-11T22:23:20.521Z,59.90
2018-09-11T22:25:48.740Z,59.70
2018-09-11T22:28:17.437Z,59.70
2018-09-11T22:30:45.598Z,60.00
2018-09-11T22:33:13.622Z,60.30
2018-09-11T22:35:41.819Z,60.70
2018-09-11T22:38:10.042Z,61.70
2018-09-11T22:40:38.012Z,62.30
2018-09-11T22:43:06.651Z,62.10
2018-09-11T22:45:34.709Z,60.50
2018-09-11T22:48:02.717Z,60.00
2018-09-11T22:50:30.774Z,59.70
2018-09-11T22:53:04.314Z,60.30
2018-09-11T22:55:32.230Z,61.90
2018-09-11T22:58:00.436Z,60.70
2018-09-11T23:00:28.426Z,59.10
2018-09-11T23:02:56.546Z,58.60
2018-09-11T23:05:24.710Z,58.60
2018-09-11T23:07:52.648Z,58.40
2018-09-11T23:10:20.585Z,58.00
2018-09-11T23:12:48.656Z,58.20
2018-09-11T23:15:16.621Z,58.40
2018-09-11T23:17:44.603Z,58.40
2018-09-11T23:20:12.600Z,58.20
2018-09-11T23:22:40.686Z,59.10
2018-09-11T23:25:08.821Z,58.70
2018-09-11T23:27:36.760Z,59.00
2018-09-11T23:30:05.234Z,59.30
2018-09-11T23:32:33.245Z,59.40
2018-09-11T23:35:01.159Z,60.20
2018-09-11T23:37:29.216Z,60.10
2018-09-11T23:39:57.170Z,61.10
2018-09-11T23:42:25.145Z,61.00
2018-09-11T23:44:53.075Z,60.10
2018-09-11T23:47:21.100Z,59.50
2018-09-11T23:49:49.040Z,58.80
2018-09-11T23:52:16.960Z,58.80
2018-09-11T23:54:44.852Z,58.20
2018-09-11T23:57:12.961Z,58.10
2018-09-11T23:59:41.020Z,58.00
